createdAt,value
2023-05-01T00:01:06.100Z,2.60
2023-05-01T00:03:33.744Z,3.30
2023-05-01T00:06:02.272Z,3.08
2023-05-01T00:08:28.943Z,2.80
2023-05-01T00:10:55.833Z,3.28
2023-05-01T00:13:24.245Z,3.10
2023-05-01T00:15:51.164Z,3.38
2023-05-01T00:18:17.588Z,3.40
2023-05-01T00:20:44.039Z,3.28
2023-05-01T00:23:12.317Z,3.70
2023-05-01T00:25:39.147Z,3.58
2023-05-01T00:28:06.362Z,3.30
2023-05-01T00:30:33.953Z,3.38
2023-05-01T00:33:01.801Z,3.70
2023-05-01T00:35:29.950Z,3.20
2023-05-01T00:37:56.476Z,4.18
2023-05-01T00:40:23.050Z,3.88
2023-05-01T00:42:49.492Z,3.78
2023-05-01T00:45:16.165Z,3.72
2023-05-01T00:47:42.661Z,3.72
2023-05-01T00:50:10.351Z,4.00
2023-05-01T00:52:37.681Z,4.75
2023-05-01T00:55:05.297Z,3.90
2023-05-01T00:57:33.111Z,4.20
2023-05-01T00:59:59.602Z,4.10
2023-05-01T01:02:27.135Z,4.60
2023-05-01T01:04:54.058Z,4.10
2023-05-01T01:07:59.294Z,4.28
2023-05-01T01:10:54.208Z,4.13
2023-05-01T01:13:32.878Z,4.53
2023-05-01T01:16:08.920Z,4.30
2023-05-01T01:18:48.525Z,4.28
2023-05-01T01:21:28.216Z,4.30
2023-05-01T01:24:16.471Z,4.43
2023-05-01T01:27:13.179Z,4.55
2023-05-01T01:29:51.156Z,4.15
2023-05-01T01:32:58.076Z,4.57
2023-05-01T01:35:27.156Z,4.55
2023-05-01T01:38:19.364Z,4.43
2023-05-01T01:41:01.134Z,4.28
2023-05-01T01:43:33.207Z,4.65
2023-05-01T01:46:03.756Z,4.35
2023-05-01T01:48:34.252Z,4.65
2023-05-01T01:51:04.804Z,4.78
2023-05-01T01:53:33.195Z,4.60
2023-05-01T01:56:03.829Z,4.55
2023-05-01T01:58:32.098Z,4.30
2023-05-01T02:01:00.399Z,4.55
2023-05-01T02:03:30.758Z,4.72
2023-05-01T02:05:59.736Z,4.75
2023-05-01T02:08:29.963Z,4.40
2023-05-01T02:11:01.104Z,4.57
2023-05-01T02:13:30.044Z,5.20
2023-05-01T02:15:58.730Z,4.97
2023-05-01T02:18:28.709Z,4.97
2023-05-01T02:20:58.689Z,4.50
2023-05-01T02:23:28.418Z,4.82
2023-05-01T02:25:57.705Z,5.15
2023-05-01T02:28:26.734Z,4.80
2023-05-01T02:30:53.280Z,4.93
2023-05-01T02:33:20.180Z,4.63
2023-05-01T02:35:47.541Z,4.85
2023-05-01T02:38:16.994Z,4.72
2023-05-01T02:40:47.064Z,4.85
2023-05-01T02:43:18.407Z,4.45
2023-05-01T02:45:46.109Z,4.88
2023-05-01T02:48:16.760Z,4.95
2023-05-01T02:50:44.997Z,4.30
2023-05-01T02:53:13.362Z,5.07
2023-05-01T02:55:48.090Z,5.10
2023-05-01T02:58:18.932Z,5.20
2023-05-01T03:00:47.087Z,4.68
2023-05-01T03:03:13.665Z,4.43
2023-05-01T03:05:41.640Z,5.00
2023-05-01T03:08:11.105Z,4.88
2023-05-01T03:10:42.543Z,4.43
2023-05-01T03:13:10.830Z,4.85
2023-05-01T03:15:37.946Z,4.90
2023-05-01T03:18:05.522Z,4.65
2023-05-01T03:20:32.089Z,4.40
2023-05-01T03:22:59.228Z,4.70
2023-05-01T03:25:26.000Z,4.70
2023-05-01T03:27:54.765Z,4.88
2023-05-01T03:30:21.816Z,4.60
2023-05-01T03:32:48.977Z,5.20
2023-05-01T03:35:21.694Z,5.03
2023-05-01T03:37:49.239Z,4.55
2023-05-01T03:40:35.019Z,4.90
2023-05-01T03:43:20.046Z,5.35
2023-05-01T03:45:46.693Z,4.82
2023-05-01T03:48:14.137Z,5.53
2023-05-01T03:50:41.285Z,4.72
2023-05-01T03:53:07.720Z,5.40
2023-05-01T03:55:34.807Z,4.85
2023-05-01T03:58:01.890Z,5.57
2023-05-01T04:00:28.475Z,4.97
2023-05-01T04:02:56.634Z,5.13
2023-05-01T04:05:24.359Z,4.85
2023-05-01T04:07:53.750Z,5.15
2023-05-01T04:10:20.234Z,5.03
2023-05-01T04:12:55.622Z,5.10
2023-05-01T04:15:22.501Z,7.63
2023-05-01T04:17:49.301Z,6.05
2023-05-01T04:20:19.058Z,5.50
2023-05-01T04:22:47.046Z,5.60
2023-05-01T04:25:13.463Z,6.88
2023-05-01T04:27:40.593Z,6.00
2023-05-01T04:30:08.351Z,6.22
2023-05-01T04:32:35.533Z,5.22
2023-05-01T04:35:02.536Z,5.72
2023-05-01T04:37:29.556Z,6.30
2023-05-01T04:39:56.403Z,5.95
2023-05-01T04:42:29.590Z,5.63
2023-05-01T04:44:56.168Z,5.28
2023-05-01T04:47:22.572Z,6.22
2023-05-01T04:49:49.002Z,5.60
2023-05-01T04:52:17.506Z,5.10
2023-05-01T04:54:51.014Z,5.63
2023-05-01T04:57:18.359Z,7.22
2023-05-01T04:59:45.075Z,6.28
2023-05-01T05:02:12.972Z,5.85
2023-05-01T05:04:39.422Z,5.78
2023-05-01T05:07:06.166Z,5.57
2023-05-01T05:09:53.043Z,5.72
2023-05-01T05:12:20.068Z,5.90
2023-05-01T05:14:47.873Z,6.15
2023-05-01T05:17:16.529Z,5.72
2023-05-01T05:19:43.122Z,5.95
2023-05-01T05:22:12.088Z,5.70
2023-05-01T05:25:00.004Z,5.18
2023-05-01T05:27:26.640Z,5.65
2023-05-01T05:29:53.314Z,5.70
2023-05-01T05:32:19.990Z,5.53
2023-05-01T05:34:47.633Z,5.65
2023-05-01T05:37:15.312Z,5.65
2023-05-01T05:39:48.997Z,5.30
2023-05-01T05:42:15.532Z,5.30
2023-05-01T05:44:41.942Z,5.32
2023-05-01T05:47:09.137Z,5.63
2023-05-01T05:49:35.775Z,5.40
2023-05-01T05:52:02.388Z,4.75
2023-05-01T05:54:29.271Z,4.22
2023-05-01T05:56:56.123Z,4.07
2023-05-01T05:59:23.137Z,4.03
2023-05-01T06:01:50.002Z,4.30
2023-05-01T06:04:16.562Z,3.55
2023-05-01T06:06:44.116Z,3.55
2023-05-01T06:09:12.310Z,3.92
2023-05-01T06:11:38.845Z,3.95
2023-05-01T06:14:05.935Z,3.55
2023-05-01T06:16:34.361Z,3.30
2023-05-01T06:19:01.625Z,3.10
2023-05-01T06:21:28.177Z,3.20
2023-05-01T06:23:54.647Z,3.30
2023-05-01T06:26:23.751Z,3.42
2023-05-01T06:28:50.323Z,2.67
2023-05-01T06:31:16.864Z,2.70
2023-05-01T06:33:49.593Z,2.47
2023-05-01T06:36:23.500Z,2.58
2023-05-01T06:38:50.024Z,2.03
2023-05-01T06:41:16.751Z,2.08
2023-05-01T06:43:46.003Z,2.25
2023-05-01T06:46:12.692Z,2.25
2023-05-01T06:48:39.221Z,2.05
2023-05-01T06:51:05.757Z,1.75
2023-05-01T06:53:32.288Z,2.00
2023-05-01T06:55:58.719Z,2.20
2023-05-01T06:58:26.166Z,1.90
2023-05-01T07:00:53.953Z,2.30
2023-05-01T07:03:21.377Z,1.83
2023-05-01T07:05:47.862Z,2.38
2023-05-01T07:08:14.442Z,2.30
2023-05-01T07:10:42.281Z,2.30
2023-05-01T07:13:09.371Z,2.38
2023-05-01T07:15:35.892Z,2.03
2023-05-01T07:18:05.620Z,1.88
2023-05-01T07:20:32.817Z,1.92
2023-05-01T07:22:59.265Z,2.58
2023-05-01T07:25:25.655Z,2.10
2023-05-01T07:27:52.586Z,2.55
2023-05-01T07:30:19.062Z,2.20
2023-05-01T07:32:45.521Z,2.30
2023-05-01T07:35:12.093Z,5.88
2023-05-01T07:37:38.606Z,2.50
2023-05-01T07:40:05.527Z,1.77
2023-05-01T07:42:31.957Z,2.10
2023-05-01T07:44:58.477Z,2.45
2023-05-01T07:47:26.194Z,3.50
2023-05-01T07:49:52.616Z,2.70
2023-05-01T07:52:20.014Z,2.38
2023-05-01T07:54:51.139Z,2.50
2023-05-01T07:57:17.847Z,2.63
2023-05-01T07:59:44.285Z,2.20
2023-05-01T08:02:10.761Z,2.47
2023-05-01T08:04:37.279Z,2.60
2023-05-01T08:07:03.671Z,3.10
2023-05-01T08:09:30.057Z,4.70
2023-05-01T08:11:56.448Z,3.35
2023-05-01T08:14:22.899Z,2.95
2023-05-01T08:16:54.201Z,3.05
2023-05-01T08:19:21.153Z,2.75
2023-05-01T08:21:47.538Z,3.28
2023-05-01T08:24:14.023Z,3.50
2023-05-01T08:26:40.596Z,3.17
2023-05-01T08:29:07.004Z,3.15
2023-05-01T08:31:35.769Z,2.92
2023-05-01T08:34:02.327Z,3.47
2023-05-01T08:36:28.700Z,3.20
2023-05-01T08:38:55.087Z,2.90
2023-05-01T08:41:22.804Z,3.13
2023-05-01T08:43:49.764Z,2.60
2023-05-01T08:46:32.227Z,3.00
2023-05-01T08:49:01.284Z,3.45
2023-05-01T08:51:31.186Z,3.30
2023-05-01T08:53:58.441Z,3.80
2023-05-01T08:56:25.329Z,3.15
2023-05-01T08:58:53.997Z,3.30
2023-05-01T09:01:22.192Z,3.60
2023-05-01T09:03:50.954Z,3.22
2023-05-01T09:06:17.676Z,3.15
2023-05-01T09:08:44.124Z,2.88
2023-05-01T09:11:11.914Z,2.50
2023-05-01T09:13:38.797Z,3.08
2023-05-01T09:16:06.398Z,2.67
2023-05-01T09:18:34.509Z,2.55
2023-05-01T09:21:01.850Z,2.92
2023-05-01T09:23:28.264Z,2.70
2023-05-01T09:25:55.249Z,2.90
2023-05-01T09:28:45.968Z,2.80
2023-05-01T09:31:32.690Z,2.50
2023-05-01T09:34:01.327Z,2.72
2023-05-01T09:36:32.400Z,2.33
2023-05-01T09:39:00.352Z,2.33
2023-05-01T09:41:27.896Z,2.45
2023-05-01T09:43:56.156Z,2.22
2023-05-01T09:46:24.509Z,2.40
2023-05-01T09:48:59.824Z,2.70
2023-05-01T09:51:31.149Z,2.50
2023-05-01T09:53:59.235Z,2.45
2023-05-01T09:56:27.010Z,2.58
2023-05-01T09:58:54.801Z,2.78
2023-05-01T10:01:38.550Z,2.40
2023-05-01T10:04:05.788Z,2.40
2023-05-01T10:06:32.457Z,2.40
2023-05-01T10:08:59.021Z,2.33
2023-05-01T10:11:26.745Z,2.15
2023-05-01T10:14:11.738Z,2.83
2023-05-01T10:16:38.874Z,2.30
2023-05-01T10:19:06.409Z,1.77
2023-05-01T10:21:33.909Z,2.15
2023-05-01T10:24:03.483Z,2.03
2023-05-01T10:26:30.074Z,2.05
2023-05-01T10:28:59.515Z,2.22
2023-05-01T10:31:29.575Z,2.20
2023-05-01T10:33:56.492Z,2.00
2023-05-01T10:36:28.700Z,2.38
2023-05-01T10:38:55.215Z,2.08
2023-05-01T10:41:59.801Z,2.30
2023-05-01T10:44:27.213Z,2.47
2023-05-01T10:46:54.871Z,2.03
2023-05-01T10:49:22.130Z,2.30
2023-05-01T10:52:04.099Z,2.10
2023-05-01T10:54:31.490Z,2.00
2023-05-01T10:57:02.924Z,1.90
2023-05-01T11:00:01.640Z,2.13
2023-05-01T11:02:30.253Z,2.13
2023-05-01T11:04:57.114Z,2.22
2023-05-01T11:07:24.759Z,2.28
2023-05-01T11:09:55.891Z,2.08
2023-05-01T11:12:52.157Z,1.70
2023-05-01T11:15:30.264Z,1.60
2023-05-01T11:17:57.770Z,1.90
2023-05-01T11:20:24.249Z,1.70
2023-05-01T11:22:57.693Z,1.98
2023-05-01T11:25:27.151Z,1.80
2023-05-01T11:27:57.622Z,1.33
2023-05-01T11:30:24.577Z,1.50
2023-05-01T11:32:51.704Z,2.15
2023-05-01T11:35:23.835Z,1.90
2023-05-01T11:37:56.791Z,1.67
2023-05-01T11:40:26.867Z,1.80
2023-05-01T11:43:07.219Z,1.90
2023-05-01T11:45:35.893Z,1.40
2023-05-01T11:48:04.540Z,1.70
2023-05-01T11:50:38.549Z,1.50
2023-05-01T11:53:17.719Z,1.42
2023-05-01T11:55:45.363Z,1.20
2023-05-01T11:58:12.601Z,0.90
2023-05-01T12:00:41.610Z,0.80
2023-05-01T12:03:13.409Z,1.10
2023-05-01T12:05:43.022Z,1.10
2023-05-01T12:08:12.080Z,1.20
2023-05-01T12:10:41.167Z,1.13
2023-05-01T12:13:09.381Z,1.15
2023-05-01T12:15:37.947Z,1.15
2023-05-01T12:18:05.683Z,1.02
2023-05-01T12:20:37.348Z,1.40
2023-05-01T12:23:07.572Z,1.27
2023-05-01T12:25:34.856Z,1.30
2023-05-01T12:28:12.104Z,1.20
2023-05-01T12:30:39.378Z,1.55
2023-05-01T12:33:20.663Z,1.00
2023-05-01T12:35:49.486Z,1.23
2023-05-01T12:38:20.927Z,1.42
2023-05-01T12:40:55.656Z,1.42
2023-05-01T12:43:35.816Z,1.48
2023-05-01T12:46:04.432Z,1.90
2023-05-01T12:48:32.941Z,1.80
2023-05-01T12:51:00.449Z,2.08
2023-05-01T12:53:28.109Z,1.60
2023-05-01T12:55:57.254Z,1.30
2023-05-01T12:58:24.877Z,1.30
2023-05-01T13:00:53.790Z,1.88
2023-05-01T13:03:28.664Z,1.77
2023-05-01T13:06:03.109Z,1.73
2023-05-01T13:08:33.689Z,1.60
2023-05-01T13:11:03.844Z,1.50
2023-05-01T13:13:34.095Z,1.20
2023-05-01T13:16:14.327Z,1.60
2023-05-01T13:18:52.233Z,1.25
2023-05-01T13:21:21.510Z,1.10
2023-05-01T13:23:52.410Z,1.00
2023-05-01T13:26:26.732Z,0.70
2023-05-01T13:28:53.740Z,1.00
2023-05-01T13:31:20.211Z,1.17
2023-05-01T13:33:50.928Z,1.27
2023-05-01T13:36:25.356Z,1.05
2023-05-01T13:38:55.775Z,1.00
2023-05-01T13:41:24.346Z,1.15
2023-05-01T13:43:53.331Z,1.30
2023-05-01T13:46:22.849Z,1.20
2023-05-01T13:48:51.075Z,0.90
2023-05-01T13:51:22.369Z,1.30
2023-05-01T13:53:48.845Z,1.30
2023-05-01T13:56:15.746Z,1.40
2023-05-01T13:58:42.571Z,1.27
2023-05-01T14:01:16.088Z,1.35
2023-05-01T14:03:43.774Z,0.95
2023-05-01T14:06:13.742Z,0.98
2023-05-01T14:08:40.407Z,0.80
2023-05-01T14:11:08.725Z,0.70
2023-05-01T14:13:46.171Z,2.45
2023-05-01T14:16:25.013Z,3.67
2023-05-01T14:18:55.173Z,3.85
2023-05-01T14:21:24.143Z,4.13
2023-05-01T14:23:52.462Z,4.05
2023-05-01T14:26:20.851Z,3.17
2023-05-01T14:28:48.843Z,3.70
2023-05-01T14:31:21.393Z,2.78
2023-05-01T14:33:58.197Z,3.65
2023-05-01T14:36:25.510Z,4.22
2023-05-01T14:38:53.026Z,4.60
2023-05-01T14:41:19.614Z,3.83
2023-05-01T14:43:46.256Z,3.40
2023-05-01T14:46:14.825Z,4.80
2023-05-01T14:48:42.347Z,3.72
2023-05-01T14:51:18.764Z,3.15
2023-05-01T14:53:45.435Z,2.42
2023-05-01T14:56:12.618Z,2.20
2023-05-01T14:58:39.287Z,7.22
2023-05-01T15:01:06.019Z,5.45
2023-05-01T15:03:41.134Z,4.47
2023-05-01T15:06:08.827Z,3.55
2023-05-01T15:08:35.617Z,2.92
2023-05-01T15:11:02.127Z,5.70
2023-05-01T15:13:28.809Z,3.35
2023-05-01T15:15:55.250Z,2.40
2023-05-01T15:18:24.758Z,2.00
2023-05-01T15:20:51.143Z,2.38
2023-05-01T15:23:17.711Z,2.38
2023-05-01T15:25:44.348Z,2.40
2023-05-01T15:28:13.404Z,3.35
2023-05-01T15:30:44.117Z,2.83
2023-05-01T15:33:10.509Z,2.00
2023-05-01T15:35:37.138Z,1.40
2023-05-01T15:38:04.119Z,1.30
2023-05-01T15:40:30.535Z,1.65
2023-05-01T15:42:56.939Z,2.38
2023-05-01T15:45:23.549Z,2.47
2023-05-01T15:47:50.393Z,3.80
2023-05-01T15:50:16.827Z,0.90
2023-05-01T15:52:43.201Z,1.10
2023-05-01T15:55:10.048Z,1.30
2023-05-01T15:57:36.645Z,1.10
2023-05-01T16:00:04.443Z,0.90
2023-05-01T16:02:32.655Z,0.60
2023-05-01T16:05:00.219Z,0.63
2023-05-01T16:07:29.260Z,0.60
2023-05-01T16:09:57.214Z,0.50
2023-05-01T16:12:24.222Z,0.60
2023-05-01T16:14:50.800Z,0.70
2023-05-01T16:17:19.393Z,0.70
2023-05-01T16:19:46.490Z,0.80
2023-05-01T16:22:14.996Z,0.90
2023-05-01T16:24:41.546Z,0.93
2023-05-01T16:27:11.756Z,1.05
2023-05-01T16:29:38.876Z,0.90
2023-05-01T16:32:05.955Z,0.80
2023-05-01T16:34:32.624Z,1.10
2023-05-01T16:36:59.049Z,0.77
2023-05-01T16:39:25.736Z,0.80
2023-05-01T16:41:54.804Z,0.80
2023-05-01T16:44:22.783Z,0.75
2023-05-01T16:46:54.570Z,0.60
2023-05-01T16:49:22.045Z,0.70
2023-05-01T16:51:48.698Z,0.80
2023-05-01T16:54:15.892Z,0.90
2023-05-01T16:56:42.512Z,0.80
2023-05-01T16:59:08.901Z,0.52
2023-05-01T17:01:35.491Z,0.70
2023-05-01T17:04:02.585Z,0.65
2023-05-01T17:06:29.117Z,0.90
2023-05-01T17:08:55.816Z,0.82
2023-05-01T17:11:22.530Z,0.95
2023-05-01T17:13:48.977Z,1.17
2023-05-01T17:16:15.417Z,1.30
2023-05-01T17:18:42.516Z,1.27
2023-05-01T17:21:09.535Z,1.02
2023-05-01T17:23:35.960Z,1.05
2023-05-01T17:26:02.477Z,1.30
2023-05-01T17:28:28.878Z,1.02
2023-05-01T17:30:55.274Z,1.08
2023-05-01T17:33:21.878Z,0.98
2023-05-01T17:35:49.326Z,0.82
2023-05-01T17:38:16.934Z,1.10
2023-05-01T17:40:43.421Z,1.10
2023-05-01T17:43:10.967Z,1.23
2023-05-01T17:45:37.464Z,1.50
2023-05-01T17:48:03.988Z,1.20
2023-05-01T17:50:30.388Z,1.48
2023-05-01T17:52:56.864Z,1.17
2023-05-01T17:55:23.584Z,1.33
2023-05-01T17:57:52.157Z,1.55
2023-05-01T18:00:19.194Z,2.47
2023-05-01T18:02:47.501Z,2.05
2023-05-01T18:05:14.325Z,1.65
2023-05-01T18:07:41.118Z,1.60
2023-05-01T18:10:08.215Z,2.00
2023-05-01T18:12:35.084Z,2.00
2023-05-01T18:15:01.461Z,1.80
2023-05-01T18:17:27.856Z,2.45
2023-05-01T18:19:54.829Z,2.10
2023-05-01T18:22:21.257Z,2.10
2023-05-01T18:24:47.944Z,2.20
2023-05-01T18:27:14.336Z,2.40
2023-05-01T18:29:40.758Z,2.10
2023-05-01T18:32:07.296Z,2.20
2023-05-01T18:34:33.768Z,1.92
2023-05-01T18:37:00.185Z,2.30
2023-05-01T18:39:26.560Z,2.60
2023-05-01T18:41:54.591Z,2.80
2023-05-01T18:44:21.041Z,2.88
2023-05-01T18:46:47.660Z,3.72
2023-05-01T18:49:14.705Z,2.92
2023-05-01T18:51:41.333Z,3.22
2023-05-01T18:54:09.723Z,3.22
2023-05-01T18:56:36.144Z,4.30
2023-05-01T18:59:02.527Z,5.75
2023-05-01T19:01:28.985Z,5.65
2023-05-01T19:03:58.898Z,4.90
2023-05-01T19:06:26.236Z,3.95
2023-05-01T19:08:53.543Z,3.55
2023-05-01T19:11:21.523Z,3.67
2023-05-01T19:13:48.538Z,4.07
2023-05-01T19:16:15.046Z,4.15
2023-05-01T19:18:41.580Z,3.30
2023-05-01T19:21:08.028Z,3.80
2023-05-01T19:23:35.480Z,4.70
2023-05-01T19:26:04.530Z,5.22
2023-05-01T19:28:31.124Z,5.10
2023-05-01T19:30:57.820Z,5.38
2023-05-01T19:33:24.287Z,5.07
2023-05-01T19:35:51.284Z,11.13
2023-05-01T19:38:17.686Z,9.88
2023-05-01T19:40:45.138Z,7.57
2023-05-01T19:43:14.402Z,4.57
2023-05-01T19:45:40.842Z,3.97
2023-05-01T19:48:07.689Z,3.97
2023-05-01T19:50:34.316Z,4.05
2023-05-01T19:53:01.344Z,4.03
2023-05-01T19:55:28.314Z,4.30
2023-05-01T19:57:54.900Z,3.67
2023-05-01T20:00:21.377Z,5.07
2023-05-01T20:02:48.444Z,4.10
2023-05-01T20:05:14.928Z,5.07
2023-05-01T20:07:41.389Z,4.53
2023-05-01T20:10:09.557Z,4.45
2023-05-01T20:12:36.965Z,4.68
2023-05-01T20:15:04.311Z,4.60
2023-05-01T20:17:30.770Z,5.30
2023-05-01T20:19:57.295Z,4.72
2023-05-01T20:22:23.813Z,4.93
2023-05-01T20:24:50.278Z,4.82
2023-05-01T20:27:16.710Z,4.82
2023-05-01T20:29:43.876Z,5.00
2023-05-01T20:32:10.241Z,4.95
2023-05-01T20:34:36.741Z,4.90
2023-05-01T20:37:03.783Z,5.10
2023-05-01T20:39:30.268Z,5.28
2023-05-01T20:41:56.684Z,6.30
2023-05-01T20:44:23.078Z,6.28
2023-05-01T20:46:50.079Z,5.80
2023-05-01T20:49:16.587Z,6.32
2023-05-01T20:51:43.122Z,5.88
2023-05-01T20:54:09.486Z,6.50
2023-05-01T20:56:35.951Z,7.15
2023-05-01T20:59:03.729Z,7.80
2023-05-01T21:01:33.207Z,7.95
2023-05-01T21:03:59.975Z,8.07
2023-05-01T21:06:29.606Z,8.70
2023-05-01T21:08:56.033Z,8.23
2023-05-01T21:11:22.482Z,8.25
2023-05-01T21:13:48.936Z,8.27
2023-05-01T21:16:16.530Z,8.77
2023-05-01T21:18:43.351Z,8.05
2023-05-01T21:21:10.585Z,8.38
2023-05-01T21:23:42.316Z,8.23
2023-05-01T21:26:08.691Z,7.85
2023-05-01T21:28:38.392Z,8.38
2023-05-01T21:31:04.872Z,8.73
2023-05-01T21:33:31.313Z,8.95
2023-05-01T21:35:57.781Z,7.95
2023-05-01T21:38:24.220Z,9.02
2023-05-01T21:40:51.067Z,7.85
2023-05-01T21:43:18.960Z,7.97
2023-05-01T21:45:45.790Z,8.55
2023-05-01T21:48:15.994Z,8.90
2023-05-01T21:50:42.482Z,8.27
2023-05-01T21:53:09.424Z,8.85
2023-05-01T21:55:35.895Z,8.63
2023-05-01T21:58:02.403Z,8.80
2023-05-01T22:00:29.858Z,9.48
2023-05-01T22:02:56.535Z,10.05
2023-05-01T22:05:23.253Z,9.38
2023-05-01T22:07:52.007Z,10.35
2023-05-01T22:10:19.472Z,9.98
2023-05-01T22:12:46.763Z,10.48
2023-05-01T22:15:15.379Z,10.52
2023-05-01T22:17:42.293Z,10.90
2023-05-01T22:20:09.323Z,10.85
2023-05-01T22:22:36.607Z,11.18
2023-05-01T22:25:03.983Z,11.40
2023-05-01T22:27:31.024Z,11.95
2023-05-01T22:29:58.298Z,12.65
2023-05-01T22:32:25.096Z,12.02
2023-05-01T22:34:51.896Z,12.43
2023-05-01T22:37:19.368Z,13.05
2023-05-01T22:39:46.312Z,13.73
2023-05-01T22:42:12.722Z,13.48
2023-05-01T22:44:39.248Z,11.57
2023-05-01T22:47:06.295Z,13.23
2023-05-01T22:49:32.825Z,13.50
2023-05-01T22:51:59.734Z,13.68
2023-05-01T22:54:26.314Z,15.93
2023-05-01T22:56:52.883Z,15.48
2023-05-01T22:59:19.614Z,15.20
2023-05-01T23:01:46.315Z,14.88
2023-05-01T23:04:13.918Z,16.48
2023-05-01T23:06:40.631Z,15.95
2023-05-01T23:09:07.167Z,16.23
2023-05-01T23:11:34.424Z,15.45
2023-05-01T23:14:01.230Z,15.50
2023-05-01T23:16:28.025Z,16.58
2023-05-01T23:18:55.658Z,16.73
2023-05-01T23:21:22.203Z,17.50
2023-05-01T23:23:48.644Z,18.88
2023-05-01T23:26:24.896Z,18.92
2023-05-01T23:28:52.290Z,20.45
2023-05-01T23:31:25.139Z,19.98
2023-05-01T23:33:51.873Z,20.25
2023-05-01T23:36:19.181Z,20.73
2023-05-01T23:38:46.240Z,19.70
2023-05-01T23:41:13.318Z,20.45
2023-05-01T23:43:40.791Z,20.42
2023-05-01T23:46:07.534Z,21.58
2023-05-01T23:48:34.579Z,23.90
2023-05-01T23:51:01.396Z,22.80
2023-05-01T23:53:27.830Z,23.90
2023-05-01T23:55:54.373Z,23.17
2023-05-01T23:58:20.841Z,25.52
